createdAt,value
2018-07-03T00:00:45.419Z,15.40
2018-07-03T00:03:13.744Z,15.30
2018-07-03T00:05:43.345Z,15.20
2018-07-03T00:08:11.805Z,15.20
2018-07-03T00:10:41.334Z,15.20
2018-07-03T00:13:09.811Z,15.10
2018-07-03T00:15:38.145Z,15.10
2018-07-03T00:18:06.670Z,15.10
2018-07-03T00:20:35.129Z,15.10
2018-07-03T00:23:03.661Z,15.00
2018-07-03T00:25:32.020Z,15.10
2018-07-03T00:28:00.490Z,15.10
2018-07-03T00:30:29.365Z,15.00
2018-07-03T00:32:58.139Z,15.10
2018-07-03T00:35:26.692Z,15.00
2018-07-03T00:37:55.084Z,15.00
2018-07-03T00:40:24.720Z,15.00
2018-07-03T00:42:53.098Z,14.90
2018-07-03T00:45:21.691Z,14.90
2018-07-03T00:47:50.059Z,14.80
2018-07-03T00:50:18.685Z,14.70
2018-07-03T00:52:47.017Z,14.70
2018-07-03T00:55:15.389Z,14.80
2018-07-03T00:57:43.872Z,14.70
2018-07-03T01:00:21.119Z,14.80
2018-07-03T01:02:49.523Z,14.80
2018-07-03T01:05:18.085Z,14.80
2018-07-03T01:07:46.533Z,14.80
2018-07-03T01:10:14.945Z,14.70
2018-07-03T01:12:43.838Z,14.60
2018-07-03T01:15:12.413Z,14.60
2018-07-03T01:17:41.561Z,14.70
2018-07-03T01:20:10.119Z,14.60
2018-07-03T01:22:38.527Z,14.60
2018-07-03T01:25:06.847Z,14.50
2018-07-03T01:27:35.269Z,14.50
2018-07-03T01:30:04.396Z,14.40
2018-07-03T01:32:33.401Z,14.30
2018-07-03T01:35:02.008Z,14.20
2018-07-03T01:37:30.719Z,14.20
2018-07-03T01:39:59.110Z,14.10
2018-07-03T01:42:28.366Z,14.10
2018-07-03T01:44:56.788Z,14.10
2018-07-03T01:47:25.756Z,14.10
2018-07-03T01:49:54.167Z,14.10
2018-07-03T01:52:22.638Z,14.00
2018-07-03T01:54:51.110Z,13.90
2018-07-03T01:57:19.545Z,13.80
2018-07-03T01:59:47.991Z,13.70
2018-07-03T02:02:16.598Z,13.70
2018-07-03T02:04:45.030Z,13.70
2018-07-03T02:07:13.579Z,13.90
2018-07-03T02:09:41.954Z,14.10
2018-07-03T02:12:10.582Z,14.10
2018-07-03T02:14:39.065Z,14.00
2018-07-03T02:17:07.619Z,13.80
2018-07-03T02:19:35.927Z,13.70
2018-07-03T02:22:04.880Z,13.70
2018-07-03T02:24:33.239Z,13.60
2018-07-03T02:27:01.720Z,13.60
2018-07-03T02:29:32.087Z,13.50
2018-07-03T02:32:00.815Z,13.50
2018-07-03T02:37:07.985Z,13.30
2018-07-03T02:39:36.503Z,13.20
2018-07-03T02:42:05.276Z,13.20
2018-07-03T02:44:34.480Z,13.10
2018-07-03T02:47:02.936Z,13.10
2018-07-03T02:49:31.352Z,13.10
2018-07-03T02:51:59.823Z,13.10
2018-07-03T02:54:28.173Z,13.10
2018-07-03T02:56:56.578Z,13.10
2018-07-03T02:59:25.338Z,13.10
2018-07-03T03:01:53.718Z,13.00
2018-07-03T03:04:22.278Z,12.90
2018-07-03T03:06:50.917Z,12.90
2018-07-03T03:09:19.318Z,12.80
2018-07-03T03:11:47.768Z,12.70
2018-07-03T03:14:16.175Z,12.70
2018-07-03T03:16:44.717Z,12.60
2018-07-03T03:19:13.092Z,12.40
2018-07-03T03:21:41.462Z,12.30
2018-07-03T03:24:09.867Z,12.20
2018-07-03T03:26:38.249Z,12.20
2018-07-03T03:29:06.694Z,12.20
2018-07-03T03:31:36.025Z,12.20
2018-07-03T03:34:05.076Z,12.20
2018-07-03T03:36:33.446Z,12.10
2018-07-03T03:39:01.871Z,12.20
2018-07-03T03:41:30.645Z,12.20
2018-07-03T03:43:59.022Z,12.20
2018-07-03T03:46:27.411Z,12.20
2018-07-03T03:48:55.934Z,12.30
2018-07-03T03:51:24.979Z,12.30
2018-07-03T03:53:53.492Z,12.60
2018-07-03T03:56:21.866Z,13.20
2018-07-03T03:58:53.529Z,14.10
2018-07-03T04:01:21.904Z,14.80
2018-07-03T04:03:50.329Z,15.40
2018-07-03T04:06:18.954Z,15.60
2018-07-03T04:08:47.361Z,16.00
2018-07-03T04:11:15.912Z,16.40
2018-07-03T04:13:44.331Z,16.90
2018-07-03T04:16:12.709Z,17.20
2018-07-03T04:18:42.030Z,17.20
2018-07-03T04:21:10.409Z,17.20
2018-07-03T04:23:38.833Z,17.50
2018-07-03T04:26:07.509Z,18.00
2018-07-03T04:28:35.949Z,18.50
2018-07-03T04:31:04.645Z,18.80
2018-07-03T04:33:33.540Z,19.00
2018-07-03T04:36:02.190Z,19.10
2018-07-03T04:38:37.151Z,19.50
2018-07-03T04:41:06.291Z,19.40
2018-07-03T04:43:36.565Z,19.40
2018-07-03T04:46:04.868Z,19.70
2018-07-03T04:48:34.280Z,19.90
2018-07-03T04:51:03.071Z,20.10
2018-07-03T04:53:31.824Z,20.30
2018-07-03T04:56:02.202Z,20.50
2018-07-03T04:58:31.636Z,20.50
2018-07-03T05:01:00.479Z,20.80
2018-07-03T05:03:28.952Z,21.00
2018-07-03T05:05:57.309Z,21.20
2018-07-03T05:08:27.553Z,21.20
2018-07-03T05:10:56.958Z,21.00
2018-07-03T05:13:25.660Z,21.40
2018-07-03T05:15:54.983Z,21.60
2018-07-03T05:18:24.818Z,21.70
2018-07-03T05:20:54.969Z,21.80
2018-07-03T05:23:24.398Z,21.80
2018-07-03T05:25:53.178Z,21.70
2018-07-03T05:28:21.812Z,21.50
2018-07-03T05:30:51.324Z,21.40
2018-07-03T05:33:20.142Z,20.70
2018-07-03T05:35:48.741Z,20.70
2018-07-03T05:38:19.476Z,20.90
2018-07-03T05:40:48.674Z,21.30
2018-07-03T05:43:17.838Z,21.50
2018-07-03T05:45:46.497Z,21.80
2018-07-03T05:48:15.046Z,21.30
2018-07-03T05:50:44.356Z,21.40
2018-07-03T05:53:12.838Z,21.90
2018-07-03T05:55:42.347Z,22.60
2018-07-03T05:58:10.900Z,23.20
2018-07-03T06:00:40.888Z,23.10
2018-07-03T06:03:09.306Z,22.70
2018-07-03T06:05:39.171Z,22.50
2018-07-03T06:08:08.036Z,22.60
2018-07-03T06:10:36.508Z,22.90
2018-07-03T06:13:05.508Z,22.60
2018-07-03T06:15:34.647Z,22.10
2018-07-03T06:18:03.095Z,22.10
2018-07-03T06:20:31.575Z,22.50
2018-07-03T06:23:00.034Z,22.90
2018-07-03T06:25:29.129Z,22.90
2018-07-03T06:27:57.590Z,23.00
2018-07-03T06:30:26.444Z,22.90
2018-07-03T06:32:55.399Z,23.30
2018-07-03T06:35:24.170Z,23.70
2018-07-03T06:37:53.404Z,24.10
2018-07-03T06:40:22.457Z,23.70
2018-07-03T06:42:51.326Z,23.30
2018-07-03T06:45:19.722Z,23.30
2018-07-03T06:47:48.216Z,23.80
2018-07-03T06:50:16.977Z,24.30
2018-07-03T06:52:45.930Z,24.70
2018-07-03T06:55:14.516Z,24.60
2018-07-03T06:57:43.204Z,24.50
2018-07-03T07:00:13.276Z,24.70
2018-07-03T07:02:41.671Z,24.70
2018-07-03T07:05:10.187Z,24.80
2018-07-03T07:07:38.732Z,25.60
2018-07-03T07:10:08.497Z,25.40
2018-07-03T07:12:38.043Z,25.30
2018-07-03T07:15:08.267Z,25.50
2018-07-03T07:17:36.727Z,25.30
2018-07-03T07:20:06.113Z,25.40
2018-07-03T07:22:34.889Z,26.60
2018-07-03T07:25:03.357Z,27.30
2018-07-03T07:27:31.853Z,27.60
2018-07-03T07:30:00.382Z,27.70
2018-07-03T07:32:30.392Z,27.60
2018-07-03T07:34:59.880Z,27.50
2018-07-03T07:37:28.665Z,28.20
2018-07-03T07:39:57.458Z,27.90
2018-07-03T07:42:26.395Z,27.90
2018-07-03T07:44:55.897Z,28.10
2018-07-03T07:47:24.491Z,28.50
2018-07-03T07:49:53.095Z,28.80
2018-07-03T07:52:22.050Z,29.10
2018-07-03T07:54:51.017Z,29.20
2018-07-03T07:57:19.750Z,29.90
2018-07-03T07:59:48.352Z,30.00
2018-07-03T08:02:17.612Z,30.20
2018-07-03T08:04:46.128Z,30.30
2018-07-03T08:07:14.702Z,30.90
2018-07-03T08:09:43.525Z,31.10
2018-07-03T08:12:12.251Z,31.00
2018-07-03T08:14:41.478Z,30.70
2018-07-03T08:17:10.773Z,30.30
2018-07-03T08:19:39.626Z,31.10
2018-07-03T08:22:08.379Z,30.90
2018-07-03T08:24:36.892Z,30.80
2018-07-03T08:27:05.625Z,30.40
2018-07-03T08:29:34.709Z,31.00
2018-07-03T08:32:03.467Z,30.80
2018-07-03T08:34:32.883Z,31.40
2018-07-03T08:37:02.620Z,31.60
2018-07-03T08:39:30.995Z,31.60
2018-07-03T08:41:59.752Z,31.70
2018-07-03T08:44:28.419Z,31.60
2018-07-03T08:46:56.815Z,31.80
2018-07-03T08:49:25.382Z,31.60
2018-07-03T08:51:54.017Z,32.30
2018-07-03T08:54:25.808Z,32.40
2018-07-03T08:56:54.817Z,32.20
2018-07-03T08:59:23.414Z,31.70
2018-07-03T09:01:52.028Z,31.80
2018-07-03T09:04:20.559Z,32.00
2018-07-03T09:06:49.300Z,31.30
2018-07-03T09:09:18.768Z,31.50
2018-07-03T09:11:47.573Z,32.50
2018-07-03T09:14:16.570Z,33.20
2018-07-03T09:16:45.016Z,34.00
2018-07-03T09:19:13.647Z,32.90
2018-07-03T09:21:42.434Z,31.80
2018-07-03T09:26:39.099Z,32.40
2018-07-03T09:29:07.542Z,32.70
2018-07-03T09:31:37.073Z,31.80
2018-07-03T09:34:07.139Z,30.10
2018-07-03T09:36:35.835Z,30.50
2018-07-03T09:39:07.612Z,31.80
2018-07-03T09:41:36.195Z,32.80
2018-07-03T09:44:08.256Z,33.80
2018-07-03T09:46:36.923Z,34.40
2018-07-03T09:49:09.262Z,34.40
2018-07-03T09:51:40.838Z,34.00
2018-07-03T09:54:11.786Z,33.90
2018-07-03T09:56:41.449Z,34.00
2018-07-03T10:01:38.909Z,33.30
2018-07-03T10:04:10.991Z,32.60
2018-07-03T10:06:40.460Z,32.60
2018-07-03T10:09:11.240Z,33.00
2018-07-03T10:11:41.158Z,31.50
2018-07-03T10:14:12.104Z,31.40
2018-07-03T10:16:40.999Z,31.60
2018-07-03T10:19:11.045Z,32.10
2018-07-03T10:21:39.668Z,31.20
2018-07-03T10:24:09.443Z,31.10
2018-07-03T10:26:39.625Z,31.60
2018-07-03T10:29:11.207Z,32.50
2018-07-03T10:31:40.352Z,33.10
2018-07-03T10:34:10.832Z,33.40
2018-07-03T10:36:40.232Z,34.20
2018-07-03T10:39:11.448Z,34.50
2018-07-03T10:41:40.562Z,33.00
2018-07-03T10:44:10.467Z,32.00
2018-07-03T10:46:38.976Z,31.00
2018-07-03T10:49:08.671Z,32.00
2018-07-03T10:51:37.194Z,33.00
2018-07-03T10:54:06.230Z,33.40
2018-07-03T10:56:34.700Z,33.80
2018-07-03T10:59:03.504Z,34.50
2018-07-03T11:01:31.913Z,34.30
2018-07-03T11:04:00.614Z,34.90
2018-07-03T11:06:29.072Z,34.50
2018-07-03T11:08:57.440Z,33.70
2018-07-03T11:11:25.982Z,34.00
2018-07-03T11:13:54.754Z,34.50
2018-07-03T11:16:23.936Z,33.40
2018-07-03T11:18:52.591Z,33.50
2018-07-03T11:21:21.343Z,33.50
2018-07-03T11:23:49.988Z,33.80
2018-07-03T11:26:18.500Z,34.10
2018-07-03T11:31:18.197Z,33.50
2018-07-03T11:33:54.421Z,32.50
2018-07-03T11:36:22.896Z,32.20
2018-07-03T11:38:52.216Z,31.40
2018-07-03T11:41:20.698Z,31.30
2018-07-03T11:43:49.277Z,31.60
2018-07-03T11:46:18.035Z,32.00
2018-07-03T11:48:46.549Z,31.30
2018-07-03T11:51:16.010Z,31.00
2018-07-03T11:53:44.696Z,31.00
2018-07-03T11:56:13.144Z,31.00
2018-07-03T11:58:41.709Z,31.40
2018-07-03T12:01:10.292Z,31.50
2018-07-03T12:03:38.689Z,31.80
2018-07-03T12:06:08.619Z,31.90
2018-07-03T12:08:37.919Z,32.30
2018-07-03T12:11:06.643Z,32.20
2018-07-03T12:13:35.253Z,32.90
2018-07-03T12:16:04.868Z,32.60
2018-07-03T12:18:37.525Z,32.20
2018-07-03T12:21:06.641Z,31.50
2018-07-03T12:23:34.974Z,31.40
2018-07-03T12:26:03.876Z,31.80
2018-07-03T12:28:33.072Z,32.40
2018-07-03T12:31:02.049Z,33.30
2018-07-03T12:33:30.989Z,33.80
2018-07-03T12:35:59.313Z,33.20
2018-07-03T12:38:27.955Z,32.70
2018-07-03T12:40:56.540Z,33.80
2018-07-03T12:43:25.216Z,34.60
2018-07-03T12:45:53.597Z,34.80
2018-07-03T12:48:22.799Z,35.30
2018-07-03T12:50:51.949Z,35.90
2018-07-03T12:53:20.523Z,35.60
2018-07-03T12:55:48.962Z,35.70
2018-07-03T12:58:18.574Z,35.60
2018-07-03T13:03:16.335Z,35.00
2018-07-03T13:05:46.404Z,35.30
2018-07-03T13:08:14.809Z,35.30
2018-07-03T13:10:43.336Z,35.70
2018-07-03T13:13:12.230Z,35.30
2018-07-03T13:15:43.534Z,35.40
2018-07-03T13:18:19.165Z,35.60
2018-07-03T13:20:49.406Z,36.00
2018-07-03T13:23:19.291Z,35.30
2018-07-03T13:25:49.353Z,34.80
2018-07-03T13:28:18.024Z,34.60
2018-07-03T13:30:47.362Z,34.90
2018-07-03T13:33:16.760Z,34.10
2018-07-03T13:35:46.122Z,31.90
2018-07-03T13:38:14.890Z,31.10
2018-07-03T13:40:43.789Z,31.40
2018-07-03T13:43:12.386Z,31.50
2018-07-03T13:45:41.155Z,31.80
2018-07-03T13:48:10.325Z,32.60
2018-07-03T13:50:39.850Z,33.10
2018-07-03T13:53:08.347Z,31.80
2018-07-03T13:55:37.420Z,30.90
2018-07-03T13:58:06.427Z,31.00
2018-07-03T14:00:35.384Z,30.90
2018-07-03T14:03:04.314Z,31.10
2018-07-03T14:05:32.959Z,31.10
2018-07-03T14:08:01.430Z,31.30
2018-07-03T14:10:29.847Z,31.60
2018-07-03T14:12:58.289Z,31.70
2018-07-03T14:15:27.945Z,31.40
2018-07-03T14:20:25.988Z,30.70
2018-07-03T14:22:55.148Z,30.40
2018-07-03T14:25:23.927Z,30.10
2018-07-03T14:27:52.495Z,30.00
2018-07-03T14:30:22.086Z,29.90
2018-07-03T14:32:51.281Z,29.90
2018-07-03T14:35:20.484Z,29.70
2018-07-03T14:37:48.942Z,29.50
2018-07-03T14:40:18.424Z,29.40
2018-07-03T14:42:47.468Z,29.20
2018-07-03T14:45:16.145Z,28.80
2018-07-03T14:47:44.866Z,28.80
2018-07-03T14:50:13.647Z,29.00
2018-07-03T14:52:42.489Z,29.10
2018-07-03T14:57:40.081Z,28.60
2018-07-03T15:00:08.687Z,28.70
2018-07-03T15:02:37.849Z,28.30
2018-07-03T15:05:07.257Z,28.20
2018-07-03T15:07:35.569Z,28.30
2018-07-03T15:10:04.166Z,28.40
2018-07-03T15:12:33.963Z,28.20
2018-07-03T15:15:02.391Z,28.00
2018-07-03T15:17:31.529Z,28.10
2018-07-03T15:22:28.786Z,28.10
2018-07-03T15:24:57.452Z,28.00
2018-07-03T15:27:26.906Z,28.00
2018-07-03T15:29:56.027Z,28.00
2018-07-03T15:32:26.796Z,27.90
2018-07-03T15:34:55.422Z,27.90
2018-07-03T15:37:24.173Z,27.90
2018-07-03T15:39:52.672Z,27.90
2018-07-03T15:42:21.320Z,27.80
2018-07-03T15:44:58.461Z,27.80
2018-07-03T15:47:27.091Z,27.70
2018-07-03T15:49:55.482Z,27.70
2018-07-03T15:52:24.027Z,27.70
2018-07-03T15:54:55.632Z,27.70
2018-07-03T15:57:24.064Z,27.70
2018-07-03T15:59:52.618Z,27.80
2018-07-03T16:02:21.230Z,28.10
2018-07-03T16:04:58.737Z,28.20
2018-07-03T16:07:36.766Z,28.30
2018-07-03T16:10:05.912Z,28.30
2018-07-03T16:12:34.315Z,28.20
2018-07-03T16:15:03.010Z,28.20
2018-07-03T16:17:31.418Z,28.10
2018-07-03T16:20:04.062Z,28.10
2018-07-03T16:22:32.527Z,28.10
2018-07-03T16:27:29.424Z,27.90
2018-07-03T16:29:58.443Z,27.70
2018-07-03T16:32:27.657Z,27.80
2018-07-03T16:34:56.513Z,28.00
2018-07-03T16:37:25.129Z,27.90
2018-07-03T16:39:54.152Z,27.80
2018-07-03T16:42:22.669Z,27.70
2018-07-03T16:44:51.299Z,27.60
2018-07-03T16:47:19.776Z,27.70
2018-07-03T16:49:49.238Z,27.80
2018-07-03T16:52:17.884Z,27.90
2018-07-03T16:54:46.973Z,27.70
2018-07-03T16:57:15.574Z,27.50
2018-07-03T16:59:44.580Z,27.50
2018-07-03T17:02:12.989Z,27.50
2018-07-03T17:04:41.824Z,27.50
2018-07-03T17:07:11.073Z,27.50
2018-07-03T17:09:40.465Z,27.50
2018-07-03T17:12:09.147Z,27.50
2018-07-03T17:14:38.975Z,27.50
2018-07-03T17:17:11.082Z,27.50
2018-07-03T17:19:44.914Z,27.50
2018-07-03T17:22:13.178Z,27.50
2018-07-03T17:24:42.040Z,27.50
2018-07-03T17:27:12.290Z,27.40
2018-07-03T17:29:41.191Z,27.30
2018-07-03T17:32:11.347Z,27.20
2018-07-03T17:34:41.380Z,27.20
2018-07-03T17:37:10.238Z,27.10
2018-07-03T17:39:48.258Z,27.10
2018-07-03T17:42:25.682Z,27.10
2018-07-03T17:45:03.202Z,27.30
2018-07-03T17:47:31.793Z,27.30
2018-07-03T17:50:02.581Z,27.30
2018-07-03T17:52:33.717Z,27.30
2018-07-03T17:55:02.217Z,27.20
2018-07-03T17:57:31.641Z,27.30
2018-07-03T18:00:00.980Z,27.20
2018-07-03T18:02:29.337Z,27.10
2018-07-03T18:04:58.638Z,27.10
2018-07-03T18:07:27.178Z,27.00
2018-07-03T18:09:56.387Z,27.10
2018-07-03T18:12:25.024Z,27.00
2018-07-03T18:14:54.161Z,27.00
2018-07-03T18:17:22.647Z,27.00
2018-07-03T18:19:51.154Z,26.90
2018-07-03T18:22:19.877Z,26.90
2018-07-03T18:24:49.759Z,26.80
2018-07-03T18:27:19.655Z,26.80
2018-07-03T18:29:48.868Z,26.60
2018-07-03T18:32:18.399Z,26.50
2018-07-03T18:34:49.249Z,26.50
2018-07-03T18:37:18.044Z,26.40
2018-07-03T18:39:47.181Z,26.30
2018-07-03T18:42:15.720Z,26.30
2018-07-03T18:44:44.361Z,26.20
2018-07-03T18:47:12.803Z,26.20
2018-07-03T18:49:42.806Z,26.20
2018-07-03T18:52:11.910Z,26.20
2018-07-03T18:54:42.100Z,26.10
2018-07-03T18:57:12.184Z,26.00
2018-07-03T18:59:40.651Z,25.90
2018-07-03T19:02:10.828Z,25.90
2018-07-03T19:04:39.416Z,25.90
2018-07-03T19:07:08.224Z,25.80
2018-07-03T19:09:37.850Z,25.80
2018-07-03T19:12:16.929Z,25.60
2018-07-03T19:14:47.456Z,25.50
2018-07-03T19:17:16.213Z,25.40
2018-07-03T19:19:45.230Z,25.40
2018-07-03T19:22:15.436Z,25.30
2018-07-03T19:24:44.673Z,25.20
2018-07-03T19:27:14.339Z,25.10
2018-07-03T19:29:43.881Z,25.00
2018-07-03T19:32:13.251Z,25.00
2018-07-03T19:34:42.760Z,24.90
2018-07-03T19:37:11.392Z,24.80
2018-07-03T19:39:40.122Z,24.80
2018-07-03T19:42:09.798Z,24.60
2018-07-03T19:44:39.696Z,24.40
2018-07-03T19:47:08.156Z,24.20
2018-07-03T19:49:36.534Z,24.20
2018-07-03T19:52:05.268Z,24.20
2018-07-03T19:54:33.715Z,24.10
2018-07-03T19:57:02.726Z,24.10
2018-07-03T19:59:31.178Z,24.10
2018-07-03T20:01:59.715Z,24.10
2018-07-03T20:04:28.171Z,24.10
2018-07-03T20:06:57.737Z,24.00
2018-07-03T20:09:26.533Z,23.80
2018-07-03T20:11:58.873Z,23.60
2018-07-03T20:14:28.112Z,23.50
2018-07-03T20:16:57.338Z,23.40
2018-07-03T20:19:25.865Z,23.40
2018-07-03T20:21:54.730Z,23.20
2018-07-03T20:24:23.141Z,23.10
2018-07-03T20:26:53.475Z,23.00
2018-07-03T20:29:22.619Z,23.00
2018-07-03T20:31:52.761Z,23.00
2018-07-03T20:34:22.811Z,23.00
2018-07-03T20:36:52.826Z,22.90
2018-07-03T20:39:22.855Z,22.80
2018-07-03T20:41:53.646Z,22.70
2018-07-03T20:44:22.274Z,22.60
2018-07-03T20:46:51.401Z,22.50
2018-07-03T20:49:21.618Z,22.30
2018-07-03T20:51:50.925Z,22.20
2018-07-03T20:54:19.714Z,22.10
2018-07-03T20:56:48.203Z,22.00
2018-07-03T20:59:16.951Z,21.90
2018-07-03T21:01:46.062Z,21.80
2018-07-03T21:04:15.036Z,21.90
2018-07-03T21:06:43.521Z,21.80
2018-07-03T21:09:18.276Z,21.60
2018-07-03T21:11:47.615Z,21.40
2018-07-03T21:14:16.047Z,21.30
2018-07-03T21:16:45.299Z,21.20
2018-07-03T21:19:14.836Z,21.10
2018-07-03T21:21:43.319Z,20.90
2018-07-03T21:24:11.877Z,20.90
2018-07-03T21:26:40.823Z,20.90
2018-07-03T21:29:10.167Z,20.80
2018-07-03T21:31:40.682Z,20.70
2018-07-03T21:34:10.070Z,20.70
2018-07-03T21:36:40.177Z,20.80
2018-07-03T21:39:14.823Z,20.70
2018-07-03T21:41:44.099Z,20.70
2018-07-03T21:46:41.814Z,20.50
2018-07-03T21:49:12.792Z,20.50
2018-07-03T21:51:41.481Z,20.40
2018-07-03T21:54:09.933Z,20.40
2018-07-03T21:56:39.198Z,20.30
2018-07-03T21:59:08.140Z,20.20
2018-07-03T22:01:36.978Z,20.10
2018-07-03T22:04:07.111Z,20.10
2018-07-03T22:06:35.467Z,20.00
2018-07-03T22:09:06.710Z,19.90
2018-07-03T22:11:36.369Z,19.80
2018-07-03T22:14:05.727Z,19.80
2018-07-03T22:16:34.774Z,19.70
2018-07-03T22:19:03.112Z,19.70
2018-07-03T22:21:33.245Z,19.70
2018-07-03T22:24:02.833Z,19.60
2018-07-03T22:26:33.727Z,19.60
2018-07-03T22:29:03.116Z,19.50
2018-07-03T22:31:33.627Z,19.50
2018-07-03T22:34:05.493Z,19.40
2018-07-03T22:36:35.065Z,19.30
2018-07-03T22:39:05.322Z,19.20
2018-07-03T22:41:34.838Z,19.10
2018-07-03T22:44:04.796Z,19.10
2018-07-03T22:46:33.966Z,19.10
2018-07-03T22:49:03.071Z,19.20
2018-07-03T22:51:32.020Z,19.10
2018-07-03T22:54:00.785Z,19.00
2018-07-03T22:56:29.457Z,19.00
2018-07-03T22:58:58.678Z,18.90
2018-07-03T23:01:27.526Z,18.90
2018-07-03T23:03:58.145Z,18.80
2018-07-03T23:06:26.638Z,18.80
2018-07-03T23:08:57.364Z,18.70
2018-07-03T23:11:27.304Z,18.60
2018-07-03T23:13:57.734Z,18.50
2018-07-03T23:16:26.507Z,18.40
2018-07-03T23:18:56.555Z,18.20
2018-07-03T23:21:26.412Z,18.10
2018-07-03T23:23:55.735Z,18.00
2018-07-03T23:26:27.530Z,18.00
2018-07-03T23:28:56.982Z,18.10
2018-07-03T23:31:28.030Z,18.10
2018-07-03T23:33:59.831Z,18.00
2018-07-03T23:36:29.756Z,17.90
2018-07-03T23:38:58.855Z,17.80
2018-07-03T23:41:28.201Z,17.80
2018-07-03T23:43:57.216Z,17.70
2018-07-03T23:46:34.668Z,17.70
2018-07-03T23:49:12.533Z,17.70
2018-07-03T23:51:49.953Z,17.70
2018-07-03T23:54:28.083Z,17.70
2018-07-03T23:57:05.308Z,17.70
2018-07-03T23:59:42.714Z,17.50
